10chiemaru — JD2376 — position and weather

sailwx.info

Track history (hours):
 
Tides and Currents Weather Stations Pressure Air Temp Water Temp Dewpoint Dewpoint Depression Visibility Wind Speed Wind Dir Waves Ship Positions

10chiemaru

Last reported at 2014-Jul-31 21:14 UTC. Time now 2014-Aug-01 09:48 UTC.
Position N 36°39' E 141°02'.

Length 72 m; draft 5 m.

Type: Ship. MMSI: 431000147.

Date/timePositionNaut miles runAvg speedWind from/ knotsBaromVisibWave heightAir tempDewpointWater temp
2014-Jul-31 21:14N 36°39' E 141°02'1211.8
2014-Jul-31 20:14N 36°27' E 141°00'2011.6
2014-Jul-31 18:32N 36°07' E 140°58'1211.5
2014-Jul-31 17:31N 35°55' E 140°58'1211.9
2014-Jul-31 16:32N 35°44' E 140°57'1211.8
2014-Jul-31 15:33N 35°34' E 140°50'1212.0
2014-Jul-31 14:31N 35°24' E 140°40'1212.2
2014-Jul-31 13:32N 35°15' E 140°32'1514.8
2014-Jul-31 12:32N 35°04' E 140°19'1414.0
2014-Jul-31 11:33N 34°56' E 140°05'1512.6
2014-Jul-31 10:22N 34°53' E 139°48'910.6
2014-Jul-31 09:33N 35°00' E 139°43'1211.5
2014-Jul-31 08:33N 35°12' E 139°46'1010.3
2014-Jul-31 07:33N 35°21' E 139°42'10 9.6
2014-Jul-31 06:33N 35°30' E 139°47'1 0.7
2014-Jul-31 05:33N 35°31' E 139°46'0 0.0
2014-Jul-31 04:33N 35°31' E 139°46'0 0.0
2014-Jul-31 03:33N 35°31' E 139°46'0 0.0
2014-Jul-31 02:33N 35°31' E 139°46'0 0.0
2014-Jul-31 01:34N 35°31' E 139°46'1 0.9
2014-Jul-31 00:33N 35°30' E 139°47'4 4.2
2014-Jul-30 23:33N 35°27' E 139°44'5 4.8
2014-Jul-30 22:33N 35°29' E 139°39'0 0.0
2014-Jul-30 21:33N 35°29' E 139°39'0 0.0
2014-Jul-30 20:33N 35°29' E 139°39'0 0.0
2014-Jul-30 19:33N 35°29' E 139°39'0 0.0
2014-Jul-30 18:33N 35°29' E 139°39'0 0.0
2014-Jul-30 17:33N 35°29' E 139°39'0 0.0
2014-Jul-30 16:33N 35°29' E 139°39'0 0.0
2014-Jul-30 15:34N 35°29' E 139°39'0 0.0
2014-Jul-30 14:33N 35°29' E 139°39'0 0.0
2014-Jul-30 13:33N 35°29' E 139°39'0 0.0
2014-Jul-30 12:33N 35°29' E 139°39'0 0.0
2014-Jul-30 11:33N 35°29' E 139°39'0 0.0
2014-Jul-30 10:33N 35°29' E 139°39'0 0.0
2014-Jul-30 09:33N 35°29' E 139°39'0 0.0
2014-Jul-30 08:33N 35°29' E 139°39'0 0.0
2014-Jul-30 07:33N 35°29' E 139°39'0 0.0
2014-Jul-30 06:33N 35°29' E 139°39'0 0.0
2014-Jul-30 05:33N 35°29' E 139°39'0 0.0
2014-Jul-30 04:33N 35°29' E 139°39'0 0.0
2014-Jul-30 03:33N 35°29' E 139°39'0 0.0
2014-Jul-30 02:33N 35°29' E 139°39'1 1.4
2014-Jul-30 01:34N 35°28' E 139°40'0 0.0
2014-Jul-30 00:33N 35°28' E 139°40'0 0.0
2014-Jul-29 23:34N 35°28' E 139°40'2 2.1
2014-Jul-29 22:33N 35°26' E 139°42'3 3.4
2014-Jul-29 21:34N 35°24' E 139°45'0 0.1
2014-Jul-29 20:33N 35°24' E 139°45'0 0.0
2014-Jul-29 19:33N 35°24' E 139°45'0 0.0
2014-Jul-29 18:33N 35°24' E 139°45'0 0.0
2014-Jul-29 17:33N 35°24' E 139°45'0 0.0
2014-Jul-29 16:33N 35°24' E 139°45'0 0.1
2014-Jul-29 15:33N 35°24' E 139°45'5 5.4
2014-Jul-29 14:33N 35°19' E 139°44'1110.7
2014-Jul-29 13:33N 35°08' E 139°46'1211.8
2014-Jul-29 12:32N 34°56' E 139°45'2010.1
2014-Jul-29 10:33N 34°58' E 140°09'64 8.9
2014-Jul-29 03:19N 35°57' E 140°42'2 0.6
2014-Jul-28 23:08N 35°55' E 140°41'5 1.7
2014-Jul-28 20:08N 35°59' E 140°43'712.0
2014-Jul-28 19:32N 35°53' E 140°48'1212.3
2014-Jul-28 18:32N 35°43' E 140°56'1111.4
2014-Jul-28 17:33N 35°33' E 140°49'1412.9
2014-Jul-28 16:29N 35°22' E 140°39'1212.8
2014-Jul-28 15:33N 35°12' E 140°30'1515.5
2014-Jul-28 14:33N 35°02' E 140°16'1515.3
2014-Jul-28 13:33N 34°54' E 140°00'1312.9
2014-Jul-28 12:33N 34°50' E 139°45'1212.3
2014-Jul-28 11:33N 34°50' E 139°30'13 0.4
2014-Jul-27 07:25N 34°55' E 139°16'8 9.4
2014-Jul-27 06:33N 34°59' E 139°24'9 9.1
2014-Jul-27 05:33N 35°04' E 139°34'1010.3
2014-Jul-27 04:33N 35°10' E 139°44'10 9.8
2014-Jul-27 03:33N 35°19' E 139°43'6 6.4
2014-Jul-27 02:33N 35°24' E 139°38'0 0.0
2014-Jul-27 01:33N 35°24' E 139°38'0 0.0
2014-Jul-27 00:33N 35°24' E 139°38'0 0.0
2014-Jul-26 23:33N 35°24' E 139°38'3 3.4
2014-Jul-26 22:33N 35°25' E 139°42'5 4.5
2014-Jul-26 21:33N 35°29' E 139°39'0 0.0
2014-Jul-26 20:33N 35°29' E 139°39'0 0.0
2014-Jul-26 19:33N 35°29' E 139°39'0 0.0
2014-Jul-26 18:33N 35°29' E 139°39'0 0.0
2014-Jul-26 17:33N 35°29' E 139°39'0 0.0
2014-Jul-26 16:33N 35°29' E 139°39'0 0.0
2014-Jul-26 15:33N 35°29' E 139°39'0 0.0
2014-Jul-26 14:33N 35°29' E 139°39'0 0.0
2014-Jul-26 13:33N 35°29' E 139°39'0 0.0
2014-Jul-26 12:33N 35°29' E 139°39'0 0.0
2014-Jul-26 11:33N 35°29' E 139°39'0 0.0
2014-Jul-26 10:33N 35°29' E 139°39'0 0.0
2014-Jul-26 09:33N 35°29' E 139°39'0 0.0
2014-Jul-26 08:33N 35°29' E 139°39'0 0.0
2014-Jul-26 07:33N 35°29' E 139°39'0 0.0
2014-Jul-26 06:33N 35°29' E 139°39'2 1.7
2014-Jul-26 05:34N 35°27' E 139°40'5 4.8
2014-Jul-26 04:33N 35°24' E 139°45'0 0.0
2014-Jul-26 03:33N 35°24' E 139°45'0 0.4
2014-Jul-26 02:33N 35°25' E 139°45'5 4.9
2014-Jul-26 01:33N 35°28' E 139°40'0 0.0
2014-Jul-26 00:33N 35°28' E 139°40'0 0.0
2014-Jul-25 23:33N 35°28' E 139°40'3 3.3
2014-Jul-25 22:33N 35°26' E 139°43'2 2.1
2014-Jul-25 21:33N 35°24' E 139°45'0 0.0
2014-Jul-25 20:33N 35°24' E 139°45'0 0.0
2014-Jul-25 19:33N 35°24' E 139°45'0 0.0
2014-Jul-25 18:33N 35°24' E 139°45'0 0.0
2014-Jul-25 17:33N 35°24' E 139°45'0 0.1
2014-Jul-25 16:33N 35°24' E 139°45'0 0.0
2014-Jul-25 15:33N 35°24' E 139°45'0 0.0
2014-Jul-25 14:33N 35°24' E 139°45'0 0.0
2014-Jul-25 13:33N 35°24' E 139°45'0 0.1
2014-Jul-25 12:33N 35°24' E 139°45'0 0.0
2014-Jul-25 11:33N 35°24' E 139°45'0 0.0
2014-Jul-25 10:33N 35°24' E 139°45'0 0.0
2014-Jul-25 09:33N 35°24' E 139°45'0 0.0
2014-Jul-25 08:33N 35°24' E 139°45'0 0.0
2014-Jul-25 07:33N 35°24' E 139°45'7 7.1
2014-Jul-25 06:31N 35°29' E 139°51'9 9.6
2014-Jul-25 05:33N 35°31' E 140°02'0 0.0
2014-Jul-25 04:31N 35°31' E 140°02'0 0.0
2014-Jul-25 03:33N 35°31' E 140°02'0 0.0
2014-Jul-25 02:33N 35°31' E 140°02'1 0.6
2014-Jul-25 01:33N 35°31' E 140°02'2 2.4
2014-Jul-25 00:32N 35°31' E 139°59'4 4.3
2014-Jul-24 23:33N 35°29' E 139°55'0 0.0
2014-Jul-24 22:32N 35°29' E 139°55'0 0.0
2014-Jul-24 21:33N 35°29' E 139°55'0 0.0
2014-Jul-24 20:33N 35°29' E 139°55'0 0.0
2014-Jul-24 19:32N 35°29' E 139°55'0 0.0
2014-Jul-24 18:33N 35°29' E 139°55'0 0.0
2014-Jul-24 17:32N 35°29' E 139°55'0 0.0
2014-Jul-24 16:33N 35°29' E 139°55'0 0.0
2014-Jul-24 15:33N 35°29' E 139°55'0 0.0
2014-Jul-24 14:33N 35°29' E 139°55'0 0.0
2014-Jul-24 13:33N 35°29' E 139°55'0 0.0
2014-Jul-24 12:33N 35°29' E 139°55'0 0.0
2014-Jul-24 11:33N 35°29' E 139°55'0 0.0
2014-Jul-24 10:33N 35°29' E 139°55'0 0.0
2014-Jul-24 09:33N 35°29' E 139°55'0 0.0
2014-Jul-24 08:33N 35°29' E 139°55'8 7.7
2014-Jul-24 07:33N 35°27' E 139°46'4 4.4
2014-Jul-24 06:33N 35°28' E 139°40'0 0.0
2014-Jul-24 05:33N 35°28' E 139°40'0 0.0
2014-Jul-24 04:33N 35°28' E 139°40'1 1.4
2014-Jul-24 03:33N 35°27' E 139°41'4 4.2
2014-Jul-24 02:33N 35°24' E 139°45'0 0.0
2014-Jul-24 01:33N 35°24' E 139°45'0 0.0
2014-Jul-24 00:33N 35°24' E 139°45'0 0.1
2014-Jul-23 23:33N 35°24' E 139°45'0 0.1
2014-Jul-23 22:33N 35°24' E 139°45'0 0.1
2014-Jul-23 21:33N 35°24' E 139°45'0 0.0
2014-Jul-23 20:33N 35°24' E 139°45'0 0.0
2014-Jul-23 19:33N 35°24' E 139°45'0 0.0
2014-Jul-23 18:33N 35°24' E 139°45'0 0.0
2014-Jul-23 17:33N 35°24' E 139°45'0 0.0
2014-Jul-23 16:33N 35°24' E 139°45'0 0.0
2014-Jul-23 15:33N 35°24' E 139°45'0 0.0
2014-Jul-23 14:33N 35°24' E 139°45'0 0.0
2014-Jul-23 13:33N 35°24' E 139°45'0 0.0
2014-Jul-23 12:33N 35°24' E 139°45'0 0.0
2014-Jul-23 11:33N 35°24' E 139°45'0 0.0
2014-Jul-23 10:33N 35°24' E 139°45'0 0.0
2014-Jul-23 09:33N 35°24' E 139°45'0 0.0
2014-Jul-23 08:33N 35°24' E 139°45'0 0.0
2014-Jul-23 07:33N 35°24' E 139°45'0 0.0
2014-Jul-23 06:33N 35°24' E 139°45'5 4.8
2014-Jul-23 05:33N 35°29' E 139°48'3 3.1
2014-Jul-23 04:33N 35°31' E 139°46'0 0.0
2014-Jul-23 03:33N 35°31' E 139°46'0 0.0
2014-Jul-23 02:33N 35°31' E 139°46'0 0.0
2014-Jul-23 01:33N 35°31' E 139°46'0 0.0
2014-Jul-23 00:33N 35°31' E 139°46'3 2.6
2014-Jul-22 23:33N 35°30' E 139°49'1 1.2
2014-Jul-22 22:33N 35°29' E 139°48'0 0.1
2014-Jul-22 21:33N 35°29' E 139°48'0 0.0
2014-Jul-22 20:33N 35°29' E 139°48'0 0.0
2014-Jul-22 19:33N 35°29' E 139°48'0 0.0
2014-Jul-22 18:33N 35°29' E 139°48'0 0.0
2014-Jul-22 17:33N 35°29' E 139°48'0 0.0
2014-Jul-22 16:33N 35°29' E 139°48'0 0.0
2014-Jul-22 15:33N 35°29' E 139°48'0 0.0
2014-Jul-22 14:33N 35°29' E 139°48'0 0.0
2014-Jul-22 13:33N 35°29' E 139°48'0 0.0
2014-Jul-22 12:33N 35°29' E 139°48'1 0.8
2014-Jul-22 11:33N 35°29' E 139°48'2 2.4
2014-Jul-22 10:33N 35°31' E 139°46'0 0.0
2014-Jul-22 09:33N 35°31' E 139°46'0 0.0
2014-Jul-22 08:33N 35°31' E 139°46'0 0.0
2014-Jul-22 07:33N 35°31' E 139°46'3 3.2
2014-Jul-22 06:33N 35°29' E 139°49'0 0.3
2014-Jul-22 05:33N 35°29' E 139°49'0 0.0
2014-Jul-22 04:33N 35°29' E 139°49'0 0.0
2014-Jul-22 03:33N 35°29' E 139°49'0 0.0
2014-Jul-22 02:33N 35°29' E 139°49'0 0.0
2014-Jul-22 01:33N 35°29' E 139°49'0 0.0
2014-Jul-22 00:33N 35°29' E 139°49'0 0.0
2014-Jul-21 23:33N 35°28' E 139°49'0 0.0
2014-Jul-21 22:33N 35°28' E 139°49'0 0.0
2014-Jul-21 21:33N 35°28' E 139°49'  
Track history (hours):
 
Tides and Currents Weather Stations Pressure Air Temp Water Temp Dewpoint Dewpoint Depression Visibility Wind Speed Wind Dir Waves Ship Positions

10chiemaru

Last reported at 2014-Jul-31 21:14 UTC. Time now 2014-Aug-01 09:48 UTC.
Position N 36°39' E 141°02'.

Length 72 m; draft 5 m.

Type: Ship. MMSI: 431000147.

Date/timePositionNaut miles runAvg speedWind from/ knotsBaromVisibWave heightAir tempDewpointWater temp
2014-Jul-31 21:14N 36°39' E 141°02'1211.8
2014-Jul-31 20:14N 36°27' E 141°00'2011.6
2014-Jul-31 18:32N 36°07' E 140°58'1211.5
2014-Jul-31 17:31N 35°55' E 140°58'1211.9
2014-Jul-31 16:32N 35°44' E 140°57'1211.8
2014-Jul-31 15:33N 35°34' E 140°50'1212.0
2014-Jul-31 14:31N 35°24' E 140°40'1212.2
2014-Jul-31 13:32N 35°15' E 140°32'1514.8
2014-Jul-31 12:32N 35°04' E 140°19'1414.0
2014-Jul-31 11:33N 34°56' E 140°05'1512.6
2014-Jul-31 10:22N 34°53' E 139°48'910.6
2014-Jul-31 09:33N 35°00' E 139°43'1211.5
2014-Jul-31 08:33N 35°12' E 139°46'1010.3
2014-Jul-31 07:33N 35°21' E 139°42'10 9.6
2014-Jul-31 06:33N 35°30' E 139°47'1 0.7
2014-Jul-31 05:33N 35°31' E 139°46'0 0.0
2014-Jul-31 04:33N 35°31' E 139°46'0 0.0
2014-Jul-31 03:33N 35°31' E 139°46'0 0.0
2014-Jul-31 02:33N 35°31' E 139°46'0 0.0
2014-Jul-31 01:34N 35°31' E 139°46'1 0.9
2014-Jul-31 00:33N 35°30' E 139°47'4 4.2
2014-Jul-30 23:33N 35°27' E 139°44'5 4.8
2014-Jul-30 22:33N 35°29' E 139°39'0 0.0
2014-Jul-30 21:33N 35°29' E 139°39'0 0.0
2014-Jul-30 20:33N 35°29' E 139°39'0 0.0
2014-Jul-30 19:33N 35°29' E 139°39'0 0.0
2014-Jul-30 18:33N 35°29' E 139°39'0 0.0
2014-Jul-30 17:33N 35°29' E 139°39'0 0.0
2014-Jul-30 16:33N 35°29' E 139°39'0 0.0
2014-Jul-30 15:34N 35°29' E 139°39'0 0.0
2014-Jul-30 14:33N 35°29' E 139°39'0 0.0
2014-Jul-30 13:33N 35°29' E 139°39'0 0.0
2014-Jul-30 12:33N 35°29' E 139°39'0 0.0
2014-Jul-30 11:33N 35°29' E 139°39'0 0.0
2014-Jul-30 10:33N 35°29' E 139°39'0 0.0
2014-Jul-30 09:33N 35°29' E 139°39'0 0.0
2014-Jul-30 08:33N 35°29' E 139°39'0 0.0
2014-Jul-30 07:33N 35°29' E 139°39'0 0.0
2014-Jul-30 06:33N 35°29' E 139°39'0 0.0
2014-Jul-30 05:33N 35°29' E 139°39'0 0.0
2014-Jul-30 04:33N 35°29' E 139°39'0 0.0
2014-Jul-30 03:33N 35°29' E 139°39'0 0.0
2014-Jul-30 02:33N 35°29' E 139°39'1 1.4
2014-Jul-30 01:34N 35°28' E 139°40'0 0.0
2014-Jul-30 00:33N 35°28' E 139°40'0 0.0
2014-Jul-29 23:34N 35°28' E 139°40'2 2.1
2014-Jul-29 22:33N 35°26' E 139°42'3 3.4
2014-Jul-29 21:34N 35°24' E 139°45'0 0.1
2014-Jul-29 20:33N 35°24' E 139°45'0 0.0
2014-Jul-29 19:33N 35°24' E 139°45'0 0.0
2014-Jul-29 18:33N 35°24' E 139°45'0 0.0
2014-Jul-29 17:33N 35°24' E 139°45'0 0.0
2014-Jul-29 16:33N 35°24' E 139°45'0 0.1
2014-Jul-29 15:33N 35°24' E 139°45'5 5.4
2014-Jul-29 14:33N 35°19' E 139°44'1110.7
2014-Jul-29 13:33N 35°08' E 139°46'1211.8
2014-Jul-29 12:32N 34°56' E 139°45'2010.1
2014-Jul-29 10:33N 34°58' E 140°09'64 8.9
2014-Jul-29 03:19N 35°57' E 140°42'2 0.6
2014-Jul-28 23:08N 35°55' E 140°41'5 1.7
2014-Jul-28 20:08N 35°59' E 140°43'712.0
2014-Jul-28 19:32N 35°53' E 140°48'1212.3
2014-Jul-28 18:32N 35°43' E 140°56'1111.4
2014-Jul-28 17:33N 35°33' E 140°49'1412.9
2014-Jul-28 16:29N 35°22' E 140°39'1212.8
2014-Jul-28 15:33N 35°12' E 140°30'1515.5
2014-Jul-28 14:33N 35°02' E 140°16'1515.3
2014-Jul-28 13:33N 34°54' E 140°00'1312.9
2014-Jul-28 12:33N 34°50' E 139°45'1212.3
2014-Jul-28 11:33N 34°50' E 139°30'13 0.4
2014-Jul-27 07:25N 34°55' E 139°16'8 9.4
2014-Jul-27 06:33N 34°59' E 139°24'9 9.1
2014-Jul-27 05:33N 35°04' E 139°34'1010.3
2014-Jul-27 04:33N 35°10' E 139°44'10 9.8
2014-Jul-27 03:33N 35°19' E 139°43'6 6.4
2014-Jul-27 02:33N 35°24' E 139°38'0 0.0
2014-Jul-27 01:33N 35°24' E 139°38'0 0.0
2014-Jul-27 00:33N 35°24' E 139°38'0 0.0
2014-Jul-26 23:33N 35°24' E 139°38'3 3.4
2014-Jul-26 22:33N 35°25' E 139°42'5 4.5
2014-Jul-26 21:33N 35°29' E 139°39'0 0.0
2014-Jul-26 20:33N 35°29' E 139°39'0 0.0
2014-Jul-26 19:33N 35°29' E 139°39'0 0.0
2014-Jul-26 18:33N 35°29' E 139°39'0 0.0
2014-Jul-26 17:33N 35°29' E 139°39'0 0.0
2014-Jul-26 16:33N 35°29' E 139°39'0 0.0
2014-Jul-26 15:33N 35°29' E 139°39'0 0.0
2014-Jul-26 14:33N 35°29' E 139°39'0 0.0
2014-Jul-26 13:33N 35°29' E 139°39'0 0.0
2014-Jul-26 12:33N 35°29' E 139°39'0 0.0
2014-Jul-26 11:33N 35°29' E 139°39'0 0.0
2014-Jul-26 10:33N 35°29' E 139°39'0 0.0
2014-Jul-26 09:33N 35°29' E 139°39'0 0.0
2014-Jul-26 08:33N 35°29' E 139°39'0 0.0
2014-Jul-26 07:33N 35°29' E 139°39'0 0.0
2014-Jul-26 06:33N 35°29' E 139°39'2 1.7
2014-Jul-26 05:34N 35°27' E 139°40'5 4.8
2014-Jul-26 04:33N 35°24' E 139°45'0 0.0
2014-Jul-26 03:33N 35°24' E 139°45'0 0.4
2014-Jul-26 02:33N 35°25' E 139°45'5 4.9
2014-Jul-26 01:33N 35°28' E 139°40'0 0.0
2014-Jul-26 00:33N 35°28' E 139°40'0 0.0
2014-Jul-25 23:33N 35°28' E 139°40'3 3.3
2014-Jul-25 22:33N 35°26' E 139°43'2 2.1
2014-Jul-25 21:33N 35°24' E 139°45'0 0.0
2014-Jul-25 20:33N 35°24' E 139°45'0 0.0
2014-Jul-25 19:33N 35°24' E 139°45'0 0.0
2014-Jul-25 18:33N 35°24' E 139°45'0 0.0
2014-Jul-25 17:33N 35°24' E 139°45'0 0.1
2014-Jul-25 16:33N 35°24' E 139°45'0 0.0
2014-Jul-25 15:33N 35°24' E 139°45'0 0.0
2014-Jul-25 14:33N 35°24' E 139°45'0 0.0
2014-Jul-25 13:33N 35°24' E 139°45'0 0.1
2014-Jul-25 12:33N 35°24' E 139°45'0 0.0
2014-Jul-25 11:33N 35°24' E 139°45'0 0.0
2014-Jul-25 10:33N 35°24' E 139°45'0 0.0
2014-Jul-25 09:33N 35°24' E 139°45'0 0.0
2014-Jul-25 08:33N 35°24' E 139°45'0 0.0
2014-Jul-25 07:33N 35°24' E 139°45'7 7.1
2014-Jul-25 06:31N 35°29' E 139°51'9 9.6
2014-Jul-25 05:33N 35°31' E 140°02'0 0.0
2014-Jul-25 04:31N 35°31' E 140°02'0 0.0
2014-Jul-25 03:33N 35°31' E 140°02'0 0.0
2014-Jul-25 02:33N 35°31' E 140°02'1 0.6
2014-Jul-25 01:33N 35°31' E 140°02'2 2.4
2014-Jul-25 00:32N 35°31' E 139°59'4 4.3
2014-Jul-24 23:33N 35°29' E 139°55'0 0.0
2014-Jul-24 22:32N 35°29' E 139°55'0 0.0
2014-Jul-24 21:33N 35°29' E 139°55'0 0.0
2014-Jul-24 20:33N 35°29' E 139°55'0 0.0
2014-Jul-24 19:32N 35°29' E 139°55'0 0.0
2014-Jul-24 18:33N 35°29' E 139°55'0 0.0
2014-Jul-24 17:32N 35°29' E 139°55'0 0.0
2014-Jul-24 16:33N 35°29' E 139°55'0 0.0
2014-Jul-24 15:33N 35°29' E 139°55'0 0.0
2014-Jul-24 14:33N 35°29' E 139°55'0 0.0
2014-Jul-24 13:33N 35°29' E 139°55'0 0.0
2014-Jul-24 12:33N 35°29' E 139°55'0 0.0
2014-Jul-24 11:33N 35°29' E 139°55'0 0.0
2014-Jul-24 10:33N 35°29' E 139°55'0 0.0
2014-Jul-24 09:33N 35°29' E 139°55'0 0.0
2014-Jul-24 08:33N 35°29' E 139°55'8 7.7
2014-Jul-24 07:33N 35°27' E 139°46'4 4.4
2014-Jul-24 06:33N 35°28' E 139°40'0 0.0
2014-Jul-24 05:33N 35°28' E 139°40'0 0.0
2014-Jul-24 04:33N 35°28' E 139°40'1 1.4
2014-Jul-24 03:33N 35°27' E 139°41'4 4.2
2014-Jul-24 02:33N 35°24' E 139°45'0 0.0
2014-Jul-24 01:33N 35°24' E 139°45'0 0.0
2014-Jul-24 00:33N 35°24' E 139°45'0 0.1
2014-Jul-23 23:33N 35°24' E 139°45'0 0.1
2014-Jul-23 22:33N 35°24' E 139°45'0 0.1
2014-Jul-23 21:33N 35°24' E 139°45'0 0.0
2014-Jul-23 20:33N 35°24' E 139°45'0 0.0
2014-Jul-23 19:33N 35°24' E 139°45'0 0.0
2014-Jul-23 18:33N 35°24' E 139°45'0 0.0
2014-Jul-23 17:33N 35°24' E 139°45'0 0.0
2014-Jul-23 16:33N 35°24' E 139°45'0 0.0
2014-Jul-23 15:33N 35°24' E 139°45'0 0.0
2014-Jul-23 14:33N 35°24' E 139°45'0 0.0
2014-Jul-23 13:33N 35°24' E 139°45'0 0.0
2014-Jul-23 12:33N 35°24' E 139°45'0 0.0
2014-Jul-23 11:33N 35°24' E 139°45'0 0.0
2014-Jul-23 10:33N 35°24' E 139°45'0 0.0
2014-Jul-23 09:33N 35°24' E 139°45'0 0.0
2014-Jul-23 08:33N 35°24' E 139°45'0 0.0
2014-Jul-23 07:33N 35°24' E 139°45'0 0.0
2014-Jul-23 06:33N 35°24' E 139°45'5 4.8
2014-Jul-23 05:33N 35°29' E 139°48'3 3.1
2014-Jul-23 04:33N 35°31' E 139°46'0 0.0
2014-Jul-23 03:33N 35°31' E 139°46'0 0.0
2014-Jul-23 02:33N 35°31' E 139°46'0 0.0
2014-Jul-23 01:33N 35°31' E 139°46'0 0.0
2014-Jul-23 00:33N 35°31' E 139°46'3 2.6
2014-Jul-22 23:33N 35°30' E 139°49'1 1.2
2014-Jul-22 22:33N 35°29' E 139°48'0 0.1
2014-Jul-22 21:33N 35°29' E 139°48'0 0.0
2014-Jul-22 20:33N 35°29' E 139°48'0 0.0
2014-Jul-22 19:33N 35°29' E 139°48'0 0.0
2014-Jul-22 18:33N 35°29' E 139°48'0 0.0
2014-Jul-22 17:33N 35°29' E 139°48'0 0.0
2014-Jul-22 16:33N 35°29' E 139°48'0 0.0
2014-Jul-22 15:33N 35°29' E 139°48'0 0.0
2014-Jul-22 14:33N 35°29' E 139°48'0 0.0
2014-Jul-22 13:33N 35°29' E 139°48'0 0.0
2014-Jul-22 12:33N 35°29' E 139°48'1 0.8
2014-Jul-22 11:33N 35°29' E 139°48'2 2.4
2014-Jul-22 10:33N 35°31' E 139°46'0 0.0
2014-Jul-22 09:33N 35°31' E 139°46'0 0.0
2014-Jul-22 08:33N 35°31' E 139°46'0 0.0
2014-Jul-22 07:33N 35°31' E 139°46'3 3.2
2014-Jul-22 06:33N 35°29' E 139°49'0 0.3
2014-Jul-22 05:33N 35°29' E 139°49'0 0.0
2014-Jul-22 04:33N 35°29' E 139°49'0 0.0
2014-Jul-22 03:33N 35°29' E 139°49'0 0.0
2014-Jul-22 02:33N 35°29' E 139°49'0 0.0
2014-Jul-22 01:33N 35°29' E 139°49'0 0.0
2014-Jul-22 00:33N 35°29' E 139°49'0 0.0
2014-Jul-21 23:33N 35°28' E 139°49'0 0.0
2014-Jul-21 22:33N 35°28' E 139°49'0 0.0
2014-Jul-21 21:33N 35°28' E 139°49'  

Dump ship's entire track history